Time;durP1;ratioP1;P1;durP2;ratioP2;P2;SDS_P1;SDS_P2;PMS_P1;PMS_P2;Temp;Humidity;BMP_temperature;BMP_pressure;BME280_temperature;BME280_humidity;BME280_pressure;Samples;Min_cycle;Max_cycle;Signal;HPM_P1;HPM_P2
2023/05/18 00:01:54;;;;;;;6.75;1.92;;;10.90;99.90;;;;;;4997796;28;20034;-81
2023/05/18 00:04:23;;;;;;;10.90;1.45;;;8.60;99.90;;;;;;4998203;28;20582;-81
2023/05/18 00:06:55;;;;;;;7.35;1.42;;;10.10;99.90;;;;;;5000018;28;20049;-82
2023/05/18 00:09:25;;;;;;;5.95;1.48;;;8.60;99.90;;;;;;5005601;28;20042;-82
2023/05/18 00:11:51;;;;;;;2.75;1.23;;;8.60;99.90;;;;;;5003871;28;20081;-81
2023/05/18 00:14:18;;;;;;;6.05;1.45;;;8.50;99.90;;;;;;4997421;28;20065;-82
2023/05/18 00:16:44;;;;;;;4.00;1.50;;;10.80;99.90;;;;;;4999845;28;20057;-81
2023/05/18 00:19:09;;;;;;;7.07;1.27;;;10.40;99.90;;;;;;5004871;28;20034;-82
2023/05/18 00:21:35;;;;;;;7.00;1.30;;;11.20;99.90;;;;;;5008601;28;20042;-82
2023/05/18 00:24:01;;;;;;;7.25;1.60;;;;;;;;;;5003957;28;20042;-83
2023/05/18 00:26:27;;;;;;;7.57;1.55;;;8.60;99.90;;;;;;5011020;28;20088;-81
2023/05/18 00:28:53;;;;;;;8.07;1.75;;;9.80;99.90;;;;;;5002424;28;20041;-82
2023/05/18 00:31:18;;;;;;;6.95;1.48;;;8.40;99.90;;;;;;5004660;28;20478;-82
2023/05/18 00:33:44;;;;;;;5.85;1.15;;;9.50;99.90;;;;;;5004921;28;20498;-81
2023/05/18 00:36:10;;;;;;;9.30;1.33;;;10.50;99.90;;;;;;5005236;28;20045;-81
2023/05/18 00:38:36;;;;;;;8.15;1.02;;;8.50;99.90;;;;;;5002082;28;20250;-82
2023/05/18 00:41:02;;;;;;;4.53;1.17;;;9.30;99.90;;;;;;5008373;28;20397;-81
2023/05/18 00:43:27;;;;;;;6.22;1.55;;;10.70;99.90;;;;;;5006821;28;20583;-81
2023/05/18 00:45:53;;;;;;;5.32;1.08;;;8.30;99.90;;;;;;5010912;28;20069;-81
2023/05/18 00:48:18;;;;;;;4.85;1.33;;;7.80;99.90;;;;;;5008907;28;20041;-81
2023/05/18 00:50:45;;;;;;;6.60;1.40;;;10.70;99.90;;;;;;5008673;28;20140;-80
2023/05/18 00:53:10;;;;;;;9.57;1.30;;;8.20;99.90;;;;;;5008874;28;20038;-80
2023/05/18 00:55:37;;;;;;;7.13;1.17;;;7.80;99.90;;;;;;5003822;28;20045;-80
2023/05/18 00:58:04;;;;;;;4.05;1.10;;;10.70;99.90;;;;;;5004269;28;20108;-82
2023/05/18 01:00:30;;;;;;;5.65;1.45;;;9.80;99.90;;;;;;5005789;28;20057;-81
2023/05/18 01:02:55;;;;;;;5.80;0.95;;;8.20;99.90;;;;;;5006168;28;20394;-81
2023/05/18 01:05:22;;;;;;;5.60;1.10;;;10.60;99.90;;;;;;5010399;28;20061;-80
2023/05/18 01:07:49;;;;;;;6.68;1.05;;;8.20;99.90;;;;;;5006472;28;20120;-82
2023/05/18 01:10:18;;;;;;;5.97;1.33;;;10.60;99.90;;;;;;5001348;28;20095;-81
2023/05/18 01:12:52;;;;;;;5.60;1.33;;;9.90;99.90;;;;;;4997344;28;20053;-82
2023/05/18 01:15:21;;;;;;;;;;;8.20;99.90;;;;;;5011060;28;20057;-79
2023/05/18 01:17:59;;;;;;;3.33;1.20;;;9.80;99.90;;;;;;5007521;28;19922;-80
2023/05/18 01:20:45;;;;;;;9.15;1.65;;;9.80;99.90;;;;;;5006321;28;20092;-80
2023/05/18 01:23:51;;;;;;;4.60;1.45;;;10.40;99.90;;;;;;4998754;28;20045;-81
2023/05/18 01:26:28;;;;;;;7.57;1.30;;;8.10;99.90;;;;;;5012071;28;20061;-81
2023/05/18 01:29:01;;;;;;;6.47;2.05;;;8.00;99.90;;;;;;5012052;28;20053;-80
2023/05/18 01:31:28;;;;;;;8.52;1.50;;;10.30;99.90;;;;;;5009930;28;20042;-79
2023/05/18 01:33:53;;;;;;;7.35;1.60;;;9.60;99.90;;;;;;5009632;28;20501;-79
2023/05/18 01:36:19;;;;;;;5.38;1.30;;;10.10;99.90;;;;;;5002865;28;20046;-79
2023/05/18 01:38:45;;;;;;;4.90;1.67;;;7.90;99.90;;;;;;5006817;28;20042;-79
2023/05/18 01:41:25;;;;;;;5.47;1.40;;;10.30;99.90;;;;;;5005603;28;20038;-78
2023/05/18 01:44:16;;;;;;;7.18;1.50;;;8.00;99.90;;;;;;4999658;28;20081;-79
2023/05/18 01:47:20;;;;;;;9.23;0.98;;;8.00;99.90;;;;;;5005938;28;20057;-81
2023/05/18 01:50:15;;;;;;;6.97;1.17;;;8.10;99.90;;;;;;4960175;28;20093;-79
2023/05/18 01:52:50;;;;;;;4.90;1.48;;;8.10;99.90;;;;;;5005392;28;20054;-79
2023/05/18 01:55:18;;;;;;;5.53;1.27;;;10.00;99.90;;;;;;5002370;28;20061;-80
2023/05/18 01:57:45;;;;;;;6.70;1.38;;;8.10;99.90;;;;;;5001364;28;20053;-80
2023/05/18 02:00:11;;;;;;;6.35;1.52;;;8.00;99.90;;;;;;5000886;28;20045;-81
2023/05/18 02:02:37;;;;;;;5.85;1.33;;;8.10;99.90;;;;;;5000658;28;20139;-82
2023/05/18 02:05:04;;;;;;;3.97;1.15;;;10.50;99.90;;;;;;5009901;28;20465;-81
2023/05/18 02:07:30;;;;;;;3.90;1.33;;;8.10;99.90;;;;;;5007876;28;20042;-81
2023/05/18 02:09:56;;;;;;;5.75;1.00;;;8.10;99.90;;;;;;5007261;28;20076;-80
2023/05/18 02:12:21;;;;;;;5.20;1.15;;;9.20;99.90;;;;;;5004388;28;20038;-81
2023/05/18 02:14:47;;;;;;;5.57;1.50;;;9.50;99.90;;;;;;5006879;28;20060;-83
2023/05/18 02:17:13;;;;;;;7.13;1.88;;;10.40;99.90;;;;;;5008086;28;20049;-83
2023/05/18 02:19:38;;;;;;;8.75;2.08;;;9.00;99.90;;;;;;5006412;28;20080;-82
2023/05/18 02:22:05;;;;;;;8.15;1.60;;;8.00;99.90;;;;;;4999430;28;20042;-81
2023/05/18 02:24:35;;;;;;;7.35;1.67;;;9.90;99.90;;;;;;5007518;28;20049;-80
2023/05/18 02:27:00;;;;;;;5.18;1.42;;;8.10;99.90;;;;;;5007806;28;20041;-80
2023/05/18 02:29:26;;;;;;;15.00;2.83;;;9.30;99.90;;;;;;5003407;28;20054;-81
2023/05/18 02:31:52;;;;;;;11.38;1.42;;;9.10;99.90;;;;;;4999946;28;20048;-81
2023/05/18 02:34:18;;;;;;;14.52;2.40;;;8.90;99.90;;;;;;5003815;28;20050;-81
2023/05/18 02:36:44;;;;;;;10.77;1.63;;;8.10;99.90;;;;;;5004211;28;20034;-81
2023/05/18 02:39:11;;;;;;;3.75;1.65;;;7.90;99.90;;;;;;5007482;28;20099;-79
2023/05/18 02:41:37;;;;;;;6.53;1.20;;;10.20;99.90;;;;;;5001284;28;20045;-80
2023/05/18 02:44:04;;;;;;;7.25;1.48;;;10.00;99.90;;;;;;5005658;28;20065;-82
2023/05/18 02:46:30;;;;;;;8.90;1.20;;;8.10;99.90;;;;;;5004147;28;20054;-81
2023/05/18 02:48:56;;;;;;;4.20;1.30;;;9.50;99.90;;;;;;5001169;28;20057;-80
2023/05/18 02:51:22;;;;;;;7.47;1.33;;;8.00;99.90;;;;;;5003051;28;20121;-80
2023/05/18 02:53:48;;;;;;;5.75;1.55;;;8.10;99.90;;;;;;5005788;28;20196;-80
2023/05/18 02:56:14;;;;;;;7.10;1.30;;;10.30;99.90;;;;;;5001388;28;20079;-82
2023/05/18 02:58:42;;;;;;;6.47;2.08;;;9.60;99.90;;;;;;5005321;28;20042;-80
2023/05/18 03:01:08;;;;;;;8.57;1.10;;;9.10;99.90;;;;;;5001093;28;20045;-81
2023/05/18 03:03:34;;;;;;;7.57;1.30;;;10.50;99.90;;;;;;5005225;28;20490;-81
2023/05/18 03:06:01;;;;;;;6.78;1.80;;;10.20;99.90;;;;;;5005035;28;20053;-82
2023/05/18 03:08:27;;;;;;;4.28;1.27;;;10.40;99.90;;;;;;5003079;28;20061;-81
2023/05/18 03:10:54;;;;;;;5.53;1.27;;;9.70;99.90;;;;;;4999695;28;20421;-81
2023/05/18 03:13:20;;;;;;;3.05;1.42;;;10.10;99.90;;;;;;5004709;28;20096;-80
2023/05/18 03:15:45;;;;;;;4.93;1.50;;;8.10;99.90;;;;;;5007958;28;20715;-81
2023/05/18 03:18:12;;;;;;;6.97;1.50;;;10.40;99.90;;;;;;5004190;28;20121;-80
2023/05/18 03:20:37;;;;;;;7.28;1.80;;;10.20;99.90;;;;;;5005308;28;20104;-81
2023/05/18 03:23:05;;;;;;;5.43;1.50;;;8.70;99.90;;;;;;5000680;28;20038;-83
2023/05/18 03:25:31;;;;;;;6.60;1.20;;;10.60;99.90;;;;;;5014439;28;20041;-80
2023/05/18 03:27:58;;;;;;;4.15;1.15;;;;;;;;;;4999658;28;20086;-82
2023/05/18 03:30:23;;;;;;;8.65;1.45;;;8.10;99.90;;;;;;5005975;28;20047;-81
2023/05/18 03:32:49;;;;;;;8.38;1.48;;;8.10;99.90;;;;;;4998456;28;20387;-81
2023/05/18 03:35:15;;;;;;;8.73;1.33;;;9.70;99.90;;;;;;5004198;28;20096;-81
2023/05/18 03:37:41;;;;;;;8.57;1.80;;;10.40;99.90;;;;;;5005614;28;20049;-81
2023/05/18 03:40:13;;;;;;;7.55;1.90;;;8.70;99.90;;;;;;5004976;28;20069;-79
2023/05/18 03:42:39;;;;;;;8.00;1.50;;;8.20;99.90;;;;;;4995428;28;20521;-83
2023/05/18 03:45:06;;;;;;;3.65;1.20;;;8.20;99.90;;;;;;5007390;28;20045;-83
2023/05/18 03:47:32;;;;;;;3.55;1.30;;;8.10;99.90;;;;;;5000236;28;20130;-79
2023/05/18 03:49:58;;;;;;;5.28;1.83;;;8.20;99.90;;;;;;5004073;28;20176;-80
2023/05/18 03:52:24;;;;;;;5.82;0.98;;;8.00;99.90;;;;;;5006409;28;20064;-82
2023/05/18 03:54:50;;;;;;;5.15;1.83;;;10.30;99.90;;;;;;5003474;28;20049;-83
2023/05/18 03:57:16;;;;;;;7.88;1.40;;;10.50;99.90;;;;;;5005079;28;20100;-82
2023/05/18 03:59:43;;;;;;;7.10;1.65;;;8.30;99.90;;;;;;5006532;28;20053;-81
2023/05/18 04:02:10;;;;;;;8.40;1.38;;;9.80;99.90;;;;;;5003854;28;20053;-82
2023/05/18 04:04:40;;;;;;;6.90;1.88;;;9.80;99.90;;;;;;5004895;28;20189;-81
2023/05/18 04:07:07;;;;;;;7.32;1.60;;;8.20;99.90;;;;;;5005903;28;20117;-82
2023/05/18 04:09:32;;;;;;;5.95;1.63;;;10.50;99.90;;;;;;5005751;28;20057;-81
2023/05/18 04:11:58;;;;;;;12.85;2.15;;;9.50;99.90;;;;;;4999556;28;20041;-84
2023/05/18 04:14:26;;;;;;;8.00;1.52;;;10.50;99.90;;;;;;5005190;28;20389;-82
2023/05/18 04:16:52;;;;;;;4.35;1.38;;;9.80;99.90;;;;;;4999794;28;20042;-81
2023/05/18 04:19:20;;;;;;;5.03;1.73;;;10.00;99.90;;;;;;4999705;28;20041;-85
2023/05/18 04:21:46;;;;;;;6.45;1.77;;;10.00;99.90;;;;;;5008318;28;20045;-81
2023/05/18 04:24:13;;;;;;;4.93;1.40;;;8.20;99.90;;;;;;4996173;28;20050;-81
2023/05/18 04:26:39;;;;;;;11.60;1.67;;;8.80;99.90;;;;;;5001149;28;20842;-83
2023/05/18 04:29:06;;;;;;;7.43;1.42;;;8.10;99.90;;;;;;5007631;28;20050;-82
2023/05/18 04:31:34;;;;;;;4.63;1.52;;;8.10;99.90;;;;;;5002047;28;20371;-81
2023/05/18 04:33:59;;;;;;;7.30;1.98;;;10.30;99.90;;;;;;5005789;28;20046;-82
2023/05/18 04:36:29;;;;;;;9.95;1.48;;;10.60;99.90;;;;;;5009242;28;20072;-82
2023/05/18 04:38:59;;;;;;;5.70;1.60;;;8.20;99.90;;;;;;5001387;28;20633;-80
2023/05/18 04:41:25;;;;;;;5.57;1.50;;;8.30;99.90;;;;;;5002487;28;20049;-85
2023/05/18 04:43:52;;;;;;;10.55;2.20;;;10.30;99.90;;;;;;4999804;28;20038;-82
2023/05/18 04:46:21;;;;;;;6.40;1.55;;;8.20;99.90;;;;;;5007803;28;20137;-81
2023/05/18 04:48:48;;;;;;;4.70;1.48;;;10.70;99.90;;;;;;5008483;28;20429;-82
2023/05/18 04:51:20;;;;;;;8.55;1.50;;;10.00;99.90;;;;;;4998835;28;20153;-82
2023/05/18 04:53:49;;;;;;;6.75;2.20;;;8.10;99.90;;;;;;5011321;28;20049;-82
2023/05/18 04:56:15;;;;;;;7.20;1.60;;;8.30;99.90;;;;;;5010086;28;20049;-84
2023/05/18 04:58:44;;;;;;;5.82;1.33;;;8.60;99.90;;;;;;5010011;28;20128;-83
2023/05/18 05:01:14;;;;;;;3.53;1.58;;;10.30;99.90;;;;;;5006947;28;20038;-83
2023/05/18 05:03:43;;;;;;;4.63;1.58;;;8.40;99.90;;;;;;5007195;28;20064;-81
2023/05/18 05:06:10;;;;;;;11.20;2.17;;;8.40;99.90;;;;;;5013915;28;20516;-83
2023/05/18 05:08:36;;;;;;;8.23;1.90;;;8.40;99.90;;;;;;4990066;28;20046;-82
2023/05/18 05:11:03;;;;;;;9.70;1.90;;;8.40;99.90;;;;;;5015717;28;20075;-81
2023/05/18 05:13:29;;;;;;;9.35;2.22;;;8.50;99.90;;;;;;5006153;28;20557;-82
2023/05/18 05:15:54;;;;;;;5.43;1.70;;;9.30;99.90;;;;;;5003486;28;20442;-81
2023/05/18 05:18:20;;;;;;;9.35;2.13;;;8.90;99.90;;;;;;5010756;28;20050;-82
2023/05/18 05:20:47;;;;;;;8.85;1.98;;;8.50;99.90;;;;;;5012152;28;20042;-82
2023/05/18 05:23:12;;;;;;;4.43;1.33;;;10.70;99.90;;;;;;5013231;28;20034;-81
2023/05/18 05:25:38;;;;;;;5.45;1.90;;;10.00;99.90;;;;;;5006777;28;20124;-81
2023/05/18 05:28:04;;;;;;;6.05;1.77;;;8.40;99.90;;;;;;5005994;28;20038;-80
2023/05/18 05:30:30;;;;;;;5.22;1.50;;;10.20;99.90;;;;;;5004785;28;20034;-80
2023/05/18 05:32:55;;;;;;;9.38;1.60;;;10.80;99.90;;;;;;5002899;28;20052;-78
2023/05/18 05:35:21;;;;;;;5.13;1.52;;;6.50;99.90;;;;;;5004608;28;20042;-79
2023/05/18 05:37:47;;;;;;;7.93;1.83;;;10.30;99.90;;;;;;4998553;28;20078;-81
2023/05/18 05:40:13;;;;;;;12.05;1.98;;;11.00;99.90;;;;;;5007477;28;20530;-81
2023/05/18 05:42:38;;;;;;;6.78;1.80;;;8.70;99.90;;;;;;5001801;28;20048;-83
2023/05/18 05:45:06;;;;;;;9.85;2.15;;;10.30;99.90;;;;;;4995746;28;20042;-79
2023/05/18 05:47:35;;;;;;;5.95;1.42;;;8.80;99.90;;;;;;5003621;28;20044;-80
2023/05/18 05:50:00;;;;;;;8.23;2.05;;;8.80;99.90;;;;;;5000781;28;20057;-80
2023/05/18 05:52:29;;;;;;;8.45;1.80;;;10.70;99.90;;;;;;4999407;28;20540;-81
2023/05/18 05:54:55;;;;;;;11.02;2.22;;;;;;;;;;5008656;28;20374;-80
2023/05/18 05:57:20;;;;;;;5.88;1.63;;;8.90;99.90;;;;;;5001328;28;20045;-80
2023/05/18 05:59:46;;;;;;;6.90;1.52;;;11.20;99.90;;;;;;5004880;28;20052;-81
2023/05/18 06:02:12;;;;;;;10.98;2.20;;;9.50;99.90;;;;;;5003977;28;20038;-81
2023/05/18 06:04:37;;;;;;;10.80;1.17;;;11.00;99.90;;;;;;5009614;28;20489;-80
2023/05/18 06:07:03;;;;;;;9.50;1.60;;;11.00;99.90;;;;;;5015242;22;20382;-80
2023/05/18 06:09:30;;;;;;;7.97;1.60;;;8.90;99.90;;;;;;5030402;28;20749;-81
2023/05/18 06:11:55;;;;;;;9.30;1.95;;;11.40;99.90;;;;;;5012362;28;20387;-80
2023/05/18 06:14:21;;;;;;;8.07;1.30;;;11.10;99.90;;;;;;5035760;28;20044;-80
2023/05/18 06:16:47;;;;;;;6.57;1.73;;;10.80;99.90;;;;;;5032140;28;20044;-81
2023/05/18 06:19:17;;;;;;;7.45;1.85;;;11.30;99.90;;;;;;5022290;28;20124;-81
2023/05/18 06:21:46;;;;;;;6.43;2.00;;;9.00;99.90;;;;;;5015486;28;20041;-81
2023/05/18 06:24:12;;;;;;;7.43;1.90;;;11.10;99.90;;;;;;4994333;28;20042;-81
2023/05/18 06:26:39;;;;;;;9.57;2.45;;;9.60;99.90;;;;;;5029745;28;20040;-80
2023/05/18 06:29:07;;;;;;;9.25;3.60;;;9.10;99.90;;;;;;5033004;28;20069;-81
2023/05/18 06:31:36;;;;;;;8.07;2.33;;;10.90;99.90;;;;;;5039275;28;20049;-80
2023/05/18 06:34:03;;;;;;;11.23;4.13;;;9.80;99.90;;;;;;5034360;28;20052;-80
2023/05/18 06:36:28;;;;;;;9.45;1.38;;;9.10;99.90;;;;;;5032827;28;20041;-81
2023/05/18 06:38:54;;;;;;;5.50;1.50;;;9.20;99.90;;;;;;5014451;28;20041;-83
2023/05/18 06:41:21;;;;;;;5.05;1.67;;;11.20;99.90;;;;;;5014855;28;20056;-80
2023/05/18 06:43:46;;;;;;;3.38;1.25;;;9.20;99.90;;;;;;5030837;28;20093;-80
2023/05/18 06:46:19;;;;;;;7.57;2.17;;;9.20;99.90;;;;;;5042176;28;20080;-81
2023/05/18 06:48:45;;;;;;;6.50;1.58;;;9.60;99.90;;;;;;5032972;28;20069;-82
2023/05/18 06:51:11;;;;;;;6.55;2.10;;;9.70;99.90;;;;;;5030827;28;20100;-82
2023/05/18 06:53:37;;;;;;;11.25;4.00;;;9.30;99.90;;;;;;5032404;28;20049;-80
2023/05/18 06:56:03;;;;;;;11.82;2.30;;;9.40;99.90;;;;;;5030692;28;20048;-84
2023/05/18 06:58:29;;;;;;;8.73;1.35;;;9.30;99.90;;;;;;5029305;28;20117;-83
2023/05/18 07:01:05;;;;;;;4.45;1.13;;;9.90;99.90;;;;;;5033738;28;20106;-80
2023/05/18 07:03:34;;;;;;;7.75;2.03;;;9.30;99.90;;;;;;5003173;28;20041;-84
2023/05/18 07:06:07;;;;;;;6.88;1.50;;;9.60;99.90;;;;;;5008917;28;20038;-80
2023/05/18 07:08:35;;;;;;;6.50;1.55;;;9.40;99.90;;;;;;5020060;28;20129;-81
2023/05/18 07:11:04;;;;;;;6.05;1.90;;;9.40;99.90;;;;;;4992939;28;20050;-81
2023/05/18 07:13:31;;;;;;;8.68;1.77;;;9.40;99.90;;;;;;5013484;28;20068;-81
2023/05/18 07:16:00;;;;;;;7.07;1.42;;;11.10;99.90;;;;;;5030241;28;20049;-82
2023/05/18 07:18:45;;;;;;;9.73;1.48;;;9.50;99.90;;;;;;5027605;28;20114;-80
2023/05/18 07:21:11;;;;;;;6.93;1.45;;;9.50;99.90;;;;;;4999182;28;20081;-80
2023/05/18 07:23:37;;;;;;;8.52;1.83;;;10.60;99.90;;;;;;5029354;28;20048;-81
2023/05/18 07:26:08;;;;;;;6.20;1.80;;;9.60;99.90;;;;;;5020163;28;20037;-81
2023/05/18 07:28:47;;;;;;;11.30;1.85;;;10.30;99.90;;;;;;4333057;28;10000817;-83
2023/05/18 07:31:15;;;;;;;6.28;1.50;;;9.80;99.90;;;;;;5008260;28;20512;-81
2023/05/18 07:33:43;;;;;;;7.03;1.73;;;12.00;99.90;;;;;;5021412;28;20042;-82
2023/05/18 07:36:12;;;;;;;8.82;1.75;;;9.90;99.90;;;;;;5029971;28;20111;-81
2023/05/18 07:38:38;;;;;;;7.30;1.92;;;;;;;;;;5024917;28;20053;-82
2023/05/18 07:41:03;;;;;;;6.28;1.63;;;10.00;99.90;;;;;;5026036;28;20115;-82
2023/05/18 07:43:29;;;;;;;4.03;1.58;;;12.20;99.90;;;;;;5003690;28;20601;-80
2023/05/18 07:45:55;;;;;;;7.47;2.13;;;10.10;99.90;;;;;;5023621;28;20041;-81
2023/05/18 07:48:27;;;;;;;5.53;1.50;;;11.30;99.90;;;;;;5024099;28;20375;-81
2023/05/18 07:50:57;;;;;;;8.05;1.85;;;10.80;99.90;;;;;;5008851;28;20134;-81
2023/05/18 07:53:25;;;;;;;7.38;2.08;;;10.20;99.90;;;;;;5023760;28;20067;-82
2023/05/18 07:55:51;;;;;;;8.70;2.03;;;10.20;99.90;;;;;;5002646;28;20407;-78
2023/05/18 07:58:17;;;;;;;6.85;1.38;;;10.30;99.90;;;;;;5000756;28;20412;-76
2023/05/18 08:00:43;;;;;;;10.23;1.83;;;10.30;99.90;;;;;;5028474;28;20045;-76
2023/05/18 08:03:09;;;;;;;7.03;2.00;;;10.30;99.90;;;;;;5026401;28;20333;-77
2023/05/18 08:05:34;;;;;;;13.52;2.45;;;12.10;99.90;;;;;;5028322;28;20676;-82
2023/05/18 08:08:01;;;;;;;57.75;5.93;;;10.50;99.90;;;;;;5032608;28;20526;-72
2023/05/18 08:10:28;;;;;;;17.80;1.92;;;10.80;99.90;;;;;;5028115;28;20046;-72
2023/05/18 08:12:54;;;;;;;5.80;1.70;;;10.60;99.90;;;;;;5027602;28;20072;-73
2023/05/18 08:15:20;;;;;;;7.18;1.50;;;10.70;99.90;;;;;;5033518;28;20049;-78
2023/05/18 08:17:46;;;;;;;8.63;1.60;;;10.80;99.90;;;;;;4997754;28;20510;-79
2023/05/18 08:20:12;;;;;;;7.90;2.17;;;10.80;99.90;;;;;;5025427;28;20050;-78
2023/05/18 08:22:37;;;;;;;5.80;1.27;;;12.10;99.90;;;;;;5025355;28;20053;-77
2023/05/18 08:25:04;;;;;;;5.15;1.80;;;10.90;99.90;;;;;;5023975;28;20079;-79
2023/05/18 08:27:29;;;;;;;5.85;1.63;;;10.90;99.90;;;;;;5029281;28;20042;-78
2023/05/18 08:29:56;;;;;;;5.93;1.77;;;13.10;99.90;;;;;;5022738;28;20071;-77
2023/05/18 08:32:22;;;;;;;7.47;1.85;;;11.20;99.90;;;;;;5026950;28;20045;-78
2023/05/18 08:34:50;;;;;;;5.53;1.02;;;10.90;99.90;;;;;;5022823;28;20052;-80
2023/05/18 08:37:15;;;;;;;8.05;1.65;;;10.90;99.90;;;;;;5015732;28;20054;-80
2023/05/18 08:39:41;;;;;;;4.20;1.35;;;11.00;99.90;;;;;;5036472;28;20048;-79
2023/05/18 08:42:19;;;;;;;5.97;1.30;;;11.00;99.90;;;;;;5034664;28;20033;-78
2023/05/18 08:44:51;;;;;;;8.40;2.08;;;11.10;99.90;;;;;;5014354;28;20049;-79
2023/05/18 08:47:17;;;;;;;9.38;1.92;;;13.00;99.90;;;;;;5050644;28;20049;-79
2023/05/18 08:49:43;;;;;;;6.97;1.73;;;13.00;99.90;;;;;;5030550;28;20512;-78
2023/05/18 08:52:10;;;;;;;5.03;1.65;;;11.60;99.90;;;;;;5030518;28;20180;-78
2023/05/18 08:54:36;;;;;;;16.70;2.10;;;12.30;99.90;;;;;;5031273;28;20037;-74
2023/05/18 08:57:11;;;;;;;10.80;1.35;;;11.50;99.90;;;;;;5032842;28;20103;-72
2023/05/18 08:59:40;;;;;;;;;;;11.50;99.90;;;;;;5030544;28;20044;-73
2023/05/18 09:02:05;;;;;;;14.48;2.10;;;11.50;99.90;;;;;;5031098;28;19929;-77
2023/05/18 09:04:33;;;;;;;10.73;2.03;;;11.50;99.90;;;;;;5028708;28;20037;-77
2023/05/18 09:07:01;;;;;;;12.10;1.90;;;11.60;99.90;;;;;;5011774;28;20547;-75
2023/05/18 09:09:28;;;;;;;7.78;1.23;;;11.60;99.90;;;;;;5037240;28;20045;-73
2023/05/18 09:11:55;;;;;;;7.22;1.90;;;11.60;99.90;;;;;;5033779;28;20037;-73
2023/05/18 09:14:24;;;;;;;8.95;1.75;;;11.80;99.90;;;;;;5033776;28;20077;-72
2023/05/18 09:16:51;;;;;;;6.40;1.42;;;11.90;99.90;;;;;;5030872;28;20077;-74
2023/05/18 09:19:17;;;;;;;6.20;1.45;;;11.80;99.90;;;;;;5033426;28;20073;-72
2023/05/18 09:21:42;;;;;;;5.38;1.10;;;12.70;99.90;;;;;;5033041;28;20038;-73
2023/05/18 09:24:08;;;;;;;5.85;1.73;;;11.90;99.90;;;;;;5033268;28;20041;-73
2023/05/18 09:26:34;;;;;;;6.10;1.35;;;12.00;99.90;;;;;;5028777;28;20476;-73
2023/05/18 09:29:00;;;;;;;8.65;1.30;;;12.10;99.90;;;;;;5029465;28;20033;-73
2023/05/18 09:31:26;;;;;;;9.80;1.42;;;12.20;99.90;;;;;;5031082;28;20057;-73
2023/05/18 09:33:52;;;;;;;2.95;1.27;;;12.20;99.90;;;;;;5034552;28;20060;-73
2023/05/18 09:36:24;;;;;;;12.45;1.88;;;12.20;99.90;;;;;;5011759;28;20405;-73
2023/05/18 09:38:51;;;;;;;7.15;1.35;;;12.20;99.90;;;;;;5029937;28;20524;-72
2023/05/18 09:41:17;;;;;;;7.35;1.52;;;12.20;99.90;;;;;;5015934;28;20052;-72
2023/05/18 09:43:45;;;;;;;9.75;1.58;;;12.20;99.90;;;;;;5020247;28;20039;-73
2023/05/18 09:46:11;;;;;;;8.73;1.38;;;12.20;99.90;;;;;;5034637;28;20112;-73
2023/05/18 09:48:42;;;;;;;5.55;1.50;;;12.30;99.90;;;;;;5030442;28;20037;-73
2023/05/18 09:51:12;;;;;;;20.80;2.42;;;12.30;99.90;;;;;;5028835;28;20037;-73
2023/05/18 09:53:39;;;;;;;7.93;1.35;;;12.40;99.90;;;;;;5033858;28;20037;-74
2023/05/18 09:56:10;;;;;;;5.53;1.20;;;12.50;99.90;;;;;;5029982;28;20041;-73
2023/05/18 09:58:38;;;;;;;10.43;1.77;;;12.50;99.90;;;;;;5029835;28;20083;-75
2023/05/18 10:01:04;;;;;;;6.50;1.17;;;13.70;99.90;;;;;;5030752;28;20041;-75
2023/05/18 10:03:38;;;;;;;7.65;2.05;;;12.70;99.90;;;;;;5034197;28;20459;-75
2023/05/18 10:06:06;;;;;;;5.10;1.83;;;12.70;99.90;;;;;;5011073;28;20049;-75
2023/05/18 10:08:33;;;;;;;5.03;1.30;;;12.70;99.90;;;;;;5012332;28;20066;-75
2023/05/18 10:10:59;;;;;;;3.60;1.33;;;12.80;99.90;;;;;;5015853;28;20182;-72
2023/05/18 10:13:26;;;;;;;144.90;12.85;;;12.80;99.90;;;;;;5033282;28;20408;-73
2023/05/18 10:15:54;;;;;;;52.03;5.22;;;13.30;99.90;;;;;;5036231;28;20536;-73
2023/05/18 10:18:25;;;;;;;30.17;3.78;;;12.90;99.90;;;;;;5031465;28;20172;-73
2023/05/18 10:20:53;;;;;;;58.15;5.00;;;14.60;99.90;;;;;;5029003;28;20389;-74
2023/05/18 10:23:20;;;;;;;284.90;20.88;;;13.60;99.90;;;;;;5013643;28;20054;-73
2023/05/18 10:25:47;;;;;;;62.08;6.20;;;13.10;99.90;;;;;;5034711;28;20041;-74
2023/05/18 10:28:27;;;;;;;118.13;8.30;;;13.20;99.90;;;;;;5022540;28;20045;-76
2023/05/18 10:30:57;;;;;;;32.17;3.33;;;13.20;99.90;;;;;;5022232;28;20068;-75
2023/05/18 10:33:26;;;;;;;20.88;2.60;;;13.10;99.90;;;;;;5021597;28;20056;-73
2023/05/18 10:35:53;;;;;;;14.18;1.88;;;13.30;99.90;;;;;;5030918;28;20045;-75
2023/05/18 10:38:27;;;;;;;10.32;1.60;;;14.40;99.90;;;;;;5016443;28;20098;-74
2023/05/18 10:40:59;;;;;;;7.95;2.20;;;13.40;99.90;;;;;;5036621;28;20046;-74
2023/05/18 10:43:26;;;;;;;12.63;1.80;;;13.30;99.90;;;;;;5014818;28;20057;-76
2023/05/18 10:45:59;;;;;;;3.85;1.30;;;13.40;99.90;;;;;;5031895;28;20045;-75
2023/05/18 10:48:26;;;;;;;10.63;1.97;;;13.40;99.90;;;;;;5028075;28;20041;-73
2023/05/18 10:50:55;;;;;;;5.22;1.45;;;13.50;99.90;;;;;;5012641;28;20045;-73
2023/05/18 10:53:28;;;;;;;8.25;2.13;;;13.40;99.90;;;;;;5017099;28;20056;-74
2023/05/18 10:55:54;;;;;;;4.72;1.38;;;13.50;99.90;;;;;;5030989;28;20393;-74
2023/05/18 10:58:29;;;;;;;4.10;1.52;;;13.40;99.90;;;;;;5011531;28;20045;-73
2023/05/18 11:00:58;;;;;;;13.27;1.67;;;13.50;99.90;;;;;;5024725;28;20424;-75
2023/05/18 11:03:25;;;;;;;45.20;3.85;;;13.60;99.90;;;;;;5015603;28;20407;-81
2023/05/18 11:06:08;;;;;;;165.20;14.30;;;13.70;99.90;;;;;;5032384;28;20049;-73
2023/05/18 11:08:49;;;;;;;9.60;2.05;;;13.80;99.90;;;;;;5039811;28;20049;-74
2023/05/18 11:11:15;;;;;;;16.45;2.90;;;13.90;99.90;;;;;;5033644;28;20120;-74
2023/05/18 11:13:47;;;;;;;83.32;7.28;;;13.90;99.90;;;;;;5012605;28;20044;-74
2023/05/18 11:16:15;;;;;;;131.13;11.00;;;14.00;99.90;;;;;;5035561;28;20037;-76
2023/05/18 11:18:45;;;;;;;6.30;2.15;;;13.90;99.90;;;;;;5015770;28;20040;-71
2023/05/18 11:21:24;;;;;;;15.30;2.33;;;14.10;99.90;;;;;;5029144;28;20073;-72
2023/05/18 11:24:16;;;;;;;59.53;4.68;;;14.10;99.90;;;;;;5030614;28;20113;-79
2023/05/18 11:26:46;;;;;;;11.38;2.35;;;14.10;99.90;;;;;;5033416;28;20051;-75
2023/05/18 11:29:21;;;;;;;9.98;1.92;;;14.10;99.90;;;;;;5030329;28;20048;-72
2023/05/18 11:31:53;;;;;;;6.85;1.48;;;14.20;99.90;;;;;;5031625;28;20485;-72
2023/05/18 11:34:43;;;;;;;5.18;1.40;;;14.20;99.90;;;;;;5029597;28;20103;-72
2023/05/18 11:37:10;;;;;;;15.60;2.33;;;14.20;99.90;;;;;;5021827;28;20088;-72
2023/05/18 11:39:36;;;;;;;7.53;2.17;;;14.20;99.90;;;;;;5008003;28;20049;-73
2023/05/18 11:42:08;;;;;;;34.72;3.60;;;14.20;99.90;;;;;;5026299;28;20046;-73
2023/05/18 11:44:34;;;;;;;36.72;3.85;;;14.20;99.90;;;;;;5026450;28;20051;-79
2023/05/18 11:47:10;;;;;;;246.10;17.00;;;14.30;99.90;;;;;;5032018;28;20132;-78
2023/05/18 11:49:44;;;;;;;127.95;11.82;;;14.40;99.90;;;;;;5028176;28;20115;-78
2023/05/18 11:52:19;;;;;;;;;;;14.50;99.90;;;;;;5055807;28;20049;-79
2023/05/18 11:54:53;;;;;;;1327.82;117.68;;;14.50;99.90;;;;;;5026218;28;20445;-77
2023/05/18 11:57:40;;;;;;;238.30;17.70;;;14.80;99.90;;;;;;5024753;28;20061;-74
2023/05/18 12:00:09;;;;;;;641.72;55.88;;;15.50;99.90;;;;;;5019268;28;20171;-77
2023/05/18 12:02:35;;;;;;;44.97;4.35;;;15.00;99.90;;;;;;5036701;28;20150;-76
2023/05/18 12:05:05;;;;;;;49.80;4.63;;;15.00;99.90;;;;;;5010757;28;20683;-75
2023/05/18 12:07:33;;;;;;;13.93;2.15;;;15.00;99.90;;;;;;5030901;28;20111;-71
2023/05/18 12:10:00;;;;;;;6.43;1.58;;;16.20;99.90;;;;;;5027261;28;20056;-72
2023/05/18 12:12:27;;;;;;;11.80;2.38;;;15.20;99.90;;;;;;5035519;28;20592;-72
2023/05/18 12:14:58;;;;;;;9.65;2.53;;;15.50;99.90;;;;;;5034150;28;20056;-73
2023/05/18 12:17:48;;;;;;;7.40;2.10;;;15.50;99.90;;;;;;5034276;28;20052;-72
2023/05/18 12:20:19;;;;;;;13.38;1.90;;;15.40;99.90;;;;;;5035487;28;20580;-72
2023/05/18 12:22:51;;;;;;;20.02;2.50;;;15.40;99.90;;;;;;5039212;28;20045;-73
2023/05/18 12:25:22;;;;;;;11.73;2.08;;;15.50;99.90;;;;;;5030074;28;20084;-72
2023/05/18 12:27:48;;;;;;;8.43;1.85;;;15.70;99.90;;;;;;5032548;28;20087;-77
2023/05/18 12:30:19;;;;;;;14.50;1.85;;;15.70;99.90;;;;;;5030725;28;20056;-75
2023/05/18 12:32:49;;;;;;;12.68;2.03;;;15.90;99.90;;;;;;5031200;28;20085;-76
2023/05/18 12:35:15;;;;;;;6.57;1.77;;;15.80;99.90;;;;;;5033146;28;20045;-78
2023/05/18 12:37:45;;;;;;;6.47;1.58;;;15.60;99.90;;;;;;5023449;28;20054;-78
2023/05/18 12:40:15;;;;;;;5.68;1.45;;;15.90;99.90;;;;;;5031967;28;20041;-77
2023/05/18 12:42:58;;;;;;;9.70;1.60;;;16.00;99.90;;;;;;5042801;28;20045;-77
2023/05/18 12:45:33;;;;;;;7.68;1.77;;;16.10;99.90;;;;;;5036990;28;20037;-77
2023/05/18 12:48:09;;;;;;;5.95;1.42;;;16.30;99.90;;;;;;5028519;28;20053;-78
2023/05/18 12:50:37;;;;;;;7.95;1.67;;;16.40;99.30;;;;;;5018969;28;20037;-77
2023/05/18 12:53:03;;;;;;;9.27;1.80;;;16.60;99.40;;;;;;5030196;28;20049;-77
2023/05/18 12:55:30;;;;;;;5.93;1.35;;;16.60;99.00;;;;;;5028451;28;20060;-76
2023/05/18 12:58:04;;;;;;;8.07;2.45;;;16.60;98.50;;;;;;5030135;28;20053;-77